createdAt,value
2022-12-20T00:01:58.158Z,25.83
2022-12-20T00:04:27.046Z,25.00
2022-12-20T00:06:55.680Z,27.40
2022-12-20T00:09:26.375Z,27.70
2022-12-20T00:11:54.761Z,27.20
2022-12-20T00:14:23.424Z,27.53
2022-12-20T00:16:52.056Z,27.17
2022-12-20T00:19:20.661Z,27.97
2022-12-20T00:21:49.028Z,27.83
2022-12-20T00:24:22.324Z,26.90
2022-12-20T00:26:55.745Z,28.07
2022-12-20T00:29:24.373Z,28.07
2022-12-20T00:31:52.905Z,28.33
2022-12-20T00:34:21.608Z,28.83
2022-12-20T00:36:49.918Z,28.80
2022-12-20T00:39:18.255Z,28.70
2022-12-20T00:41:46.916Z,27.80
2022-12-20T00:44:16.877Z,28.70
2022-12-20T00:46:45.557Z,28.57
2022-12-20T00:49:15.582Z,28.67
2022-12-20T00:51:44.221Z,28.60
2022-12-20T00:54:12.578Z,28.40
2022-12-20T00:56:41.244Z,28.33
2022-12-20T00:59:10.049Z,28.13
2022-12-20T01:01:40.055Z,27.57
2022-12-20T01:04:09.180Z,28.60
2022-12-20T01:06:38.590Z,27.43
2022-12-20T01:09:07.529Z,27.47
2022-12-20T01:11:38.968Z,27.37
2022-12-20T01:14:12.023Z,26.97
2022-12-20T01:16:46.030Z,28.83
2022-12-20T01:19:19.189Z,27.03
2022-12-20T01:21:47.895Z,27.63
2022-12-20T01:24:20.003Z,27.07
2022-12-20T01:26:49.354Z,27.33
2022-12-20T01:29:20.369Z,27.13
2022-12-20T01:31:50.460Z,26.40
2022-12-20T01:34:19.446Z,26.30
2022-12-20T01:36:49.528Z,27.80
2022-12-20T01:39:19.237Z,28.07
2022-12-20T01:41:48.346Z,26.63
2022-12-20T01:44:58.011Z,27.00
2022-12-20T01:47:33.509Z,25.87
2022-12-20T01:50:05.775Z,27.17
2022-12-20T01:52:38.682Z,26.70
2022-12-20T01:55:13.908Z,25.60
2022-12-20T01:57:48.902Z,26.87
2022-12-20T02:00:18.465Z,26.70
2022-12-20T02:02:50.948Z,26.73
2022-12-20T02:05:23.313Z,26.73
2022-12-20T02:07:56.295Z,24.60
2022-12-20T02:10:33.649Z,26.20
2022-12-20T02:13:13.597Z,27.17
2022-12-20T02:15:53.392Z,26.23
2022-12-20T02:18:28.895Z,27.50
2022-12-20T02:21:24.681Z,26.07
2022-12-20T02:24:43.807Z,26.87
2022-12-20T02:27:56.025Z,26.60
2022-12-20T02:30:33.760Z,26.73
2022-12-20T02:33:06.373Z,26.53
2022-12-20T02:35:38.567Z,27.03
2022-12-20T02:38:29.733Z,28.50
2022-12-20T02:41:03.727Z,28.67
2022-12-20T02:43:53.220Z,28.40
2022-12-20T02:46:25.376Z,27.33
2022-12-20T02:48:57.845Z,27.93
2022-12-20T02:51:31.507Z,29.10
2022-12-20T02:54:01.510Z,27.27
2022-12-20T02:56:38.481Z,28.33
2022-12-20T02:59:15.027Z,27.63
2022-12-20T03:01:51.239Z,28.37
2022-12-20T03:04:24.850Z,27.53
2022-12-20T03:07:02.827Z,29.63
2022-12-20T03:09:33.951Z,27.83
2022-12-20T03:12:03.233Z,28.63
2022-12-20T03:14:34.334Z,28.37
2022-12-20T03:17:07.315Z,29.27
2022-12-20T03:19:36.250Z,28.57
2022-12-20T03:22:04.577Z,27.50
2022-12-20T03:24:33.730Z,28.73
2022-12-20T03:27:02.937Z,28.03
2022-12-20T03:29:31.975Z,27.70
2022-12-20T03:32:00.635Z,28.70
2022-12-20T03:34:30.492Z,27.17
2022-12-20T03:36:58.975Z,27.67
2022-12-20T03:39:27.625Z,27.53
2022-12-20T03:41:57.303Z,26.30
2022-12-20T03:44:26.571Z,28.13
2022-12-20T03:46:55.745Z,26.93
2022-12-20T03:49:24.062Z,27.07
2022-12-20T03:51:54.797Z,27.67
2022-12-20T03:54:24.329Z,28.03
2022-12-20T03:57:15.540Z,28.17
2022-12-20T03:59:46.143Z,28.33
2022-12-20T04:02:17.328Z,28.27
2022-12-20T04:04:46.194Z,27.07
2022-12-20T04:07:17.591Z,27.87
2022-12-20T04:09:48.412Z,27.50
2022-12-20T04:12:18.104Z,26.87
2022-12-20T04:14:46.868Z,26.17
2022-12-20T04:17:15.399Z,27.23
2022-12-20T04:19:43.977Z,27.93
2022-12-20T04:22:14.032Z,27.20
2022-12-20T04:24:56.668Z,27.20
2022-12-20T04:27:32.357Z,26.30
2022-12-20T04:30:01.833Z,25.80
2022-12-20T04:32:31.407Z,28.80
2022-12-20T04:35:01.785Z,28.10
2022-12-20T04:37:30.532Z,27.43
2022-12-20T04:40:00.554Z,27.03
2022-12-20T04:42:50.302Z,28.17
2022-12-20T04:45:19.877Z,28.17
2022-12-20T04:47:48.798Z,28.90
2022-12-20T04:50:23.048Z,26.83
2022-12-20T04:53:09.339Z,27.07
2022-12-20T04:55:41.067Z,27.97
2022-12-20T04:58:10.019Z,27.47
2022-12-20T05:00:41.345Z,26.83
2022-12-20T05:03:24.224Z,27.83
2022-12-20T05:05:53.082Z,27.27
2022-12-20T05:08:22.657Z,26.27
2022-12-20T05:10:54.720Z,28.30
2022-12-20T05:13:24.121Z,27.67
2022-12-20T05:15:54.509Z,29.57
2022-12-20T05:18:28.167Z,28.10
2022-12-20T05:21:21.977Z,26.50
2022-12-20T05:24:10.521Z,27.77
2022-12-20T05:27:01.260Z,27.50
2022-12-20T05:29:30.539Z,26.73
2022-12-20T05:31:59.367Z,26.77
2022-12-20T05:34:28.972Z,26.43
2022-12-20T05:36:58.687Z,26.70
2022-12-20T05:39:30.956Z,26.47
2022-12-20T05:42:04.348Z,26.20
2022-12-20T05:44:33.118Z,26.57
2022-12-20T05:47:01.976Z,27.93
2022-12-20T05:49:33.027Z,25.83
2022-12-20T05:52:04.821Z,26.60
2022-12-20T05:54:33.783Z,27.57
2022-12-20T05:57:16.086Z,26.53
2022-12-20T05:59:44.589Z,25.40
2022-12-20T06:02:23.104Z,26.07
2022-12-20T06:04:59.080Z,26.57
2022-12-20T06:07:29.182Z,26.83
2022-12-20T06:10:00.883Z,25.97
2022-12-20T06:12:44.677Z,26.97
2022-12-20T06:15:15.542Z,26.40
2022-12-20T06:17:44.516Z,27.30
2022-12-20T06:20:14.203Z,26.17
2022-12-20T06:22:46.270Z,26.90
2022-12-20T06:25:16.907Z,27.70
2022-12-20T06:27:46.732Z,27.27
2022-12-20T06:30:18.726Z,27.30
2022-12-20T06:32:56.920Z,27.47
2022-12-20T06:35:25.247Z,28.67
2022-12-20T06:37:57.366Z,27.27
2022-12-20T06:40:26.301Z,27.70
2022-12-20T06:42:56.219Z,27.27
2022-12-20T06:45:26.671Z,27.80
2022-12-20T06:47:55.865Z,26.10
2022-12-20T06:50:25.085Z,26.70
2022-12-20T06:52:53.812Z,26.10
2022-12-20T06:55:23.248Z,27.37
2022-12-20T06:57:53.091Z,26.57
2022-12-20T07:00:24.522Z,26.10
2022-12-20T07:02:52.945Z,27.30
2022-12-20T07:05:21.742Z,26.77
2022-12-20T07:07:50.180Z,25.43
2022-12-20T07:10:18.827Z,27.30
2022-12-20T07:12:48.491Z,27.70
2022-12-20T07:15:17.464Z,27.63
2022-12-20T07:17:47.560Z,28.17
2022-12-20T07:20:16.615Z,26.63
2022-12-20T07:22:45.233Z,27.07
2022-12-20T07:25:13.868Z,25.77
2022-12-20T07:27:43.720Z,25.37
2022-12-20T07:30:12.837Z,26.37
2022-12-20T07:32:41.501Z,26.10
2022-12-20T07:35:12.641Z,26.00
2022-12-20T07:37:42.325Z,25.20
2022-12-20T07:40:13.125Z,25.90
2022-12-20T07:42:48.234Z,25.40
2022-12-20T07:45:17.977Z,25.50
2022-12-20T07:47:46.631Z,25.63
2022-12-20T07:50:16.509Z,24.77
2022-12-20T07:52:49.537Z,24.57
2022-12-20T07:55:19.511Z,25.30
2022-12-20T07:57:53.612Z,25.03
2022-12-20T08:00:22.652Z,26.43
2022-12-20T08:02:56.931Z,25.90
2022-12-20T08:05:26.897Z,26.00
2022-12-20T08:08:00.016Z,25.57
2022-12-20T08:10:30.450Z,25.73
2022-12-20T08:13:00.362Z,25.23
2022-12-20T08:15:30.736Z,26.77
2022-12-20T08:17:59.418Z,26.87
2022-12-20T08:20:29.286Z,27.07
2022-12-20T08:22:58.068Z,25.73
2022-12-20T08:25:26.668Z,26.47
2022-12-20T08:27:54.981Z,25.00
2022-12-20T08:30:23.330Z,26.43
2022-12-20T08:32:52.284Z,25.73
2022-12-20T08:35:20.893Z,26.07
2022-12-20T08:37:52.799Z,26.30
2022-12-20T08:40:21.848Z,25.73
2022-12-20T08:42:50.471Z,25.43
2022-12-20T08:45:20.128Z,24.63
2022-12-20T08:47:49.018Z,26.17
2022-12-20T08:50:17.444Z,25.17
2022-12-20T08:52:45.788Z,25.17
2022-12-20T08:55:15.609Z,25.67
2022-12-20T08:57:43.917Z,25.13
2022-12-20T09:00:14.331Z,24.50
2022-12-20T09:02:43.437Z,25.60
2022-12-20T09:05:12.880Z,24.70
2022-12-20T09:07:42.118Z,24.20
2022-12-20T09:10:13.550Z,24.33
2022-12-20T09:12:43.579Z,24.33
2022-12-20T09:15:12.818Z,24.30
2022-12-20T09:17:41.438Z,25.40
2022-12-20T09:20:10.774Z,24.57
2022-12-20T09:22:39.865Z,25.27
2022-12-20T09:25:09.763Z,25.43
2022-12-20T09:27:39.417Z,25.77
2022-12-20T09:30:10.868Z,25.67
2022-12-20T09:32:39.201Z,25.50
2022-12-20T09:35:08.748Z,26.30
2022-12-20T09:37:37.473Z,24.23
2022-12-20T09:40:09.323Z,23.87
2022-12-20T09:42:38.058Z,24.30
2022-12-20T09:45:16.765Z,26.47
2022-12-20T09:47:45.502Z,23.90
2022-12-20T09:50:18.869Z,25.47
2022-12-20T09:53:13.506Z,23.70
2022-12-20T09:55:57.632Z,23.77
2022-12-20T09:58:46.123Z,23.60
2022-12-20T10:01:25.298Z,23.37
2022-12-20T10:03:55.720Z,23.93
2022-12-20T10:06:47.818Z,22.80
2022-12-20T10:09:39.624Z,23.77
2022-12-20T10:12:25.718Z,22.53
2022-12-20T10:15:16.117Z,23.20
2022-12-20T10:17:59.736Z,22.00
2022-12-20T10:20:47.438Z,22.33
2022-12-20T10:23:32.814Z,23.27
2022-12-20T10:26:02.493Z,21.93
2022-12-20T10:28:36.353Z,22.00
2022-12-20T10:31:09.612Z,23.77
2022-12-20T10:33:39.358Z,22.23
2022-12-20T10:36:24.117Z,22.37
2022-12-20T10:38:55.330Z,21.87
2022-12-20T10:41:26.183Z,21.93
2022-12-20T10:44:01.408Z,21.30
2022-12-20T10:46:43.649Z,22.33
2022-12-20T10:49:32.141Z,22.13
2022-12-20T10:52:03.698Z,21.50
2022-12-20T10:54:37.180Z,22.90
2022-12-20T10:57:20.122Z,22.03
2022-12-20T10:59:54.102Z,21.77
2022-12-20T11:02:38.766Z,22.57
2022-12-20T11:05:25.623Z,21.37
2022-12-20T11:10:47.596Z,22.07
2022-12-20T11:13:32.499Z,21.97
2022-12-20T11:16:01.804Z,22.37
2022-12-20T11:18:44.908Z,22.47
2022-12-20T11:21:32.536Z,21.27
2022-12-20T11:24:11.796Z,22.07
2022-12-20T11:27:09.231Z,21.97
2022-12-20T11:30:11.170Z,21.00
2022-12-20T11:33:10.046Z,21.50
2022-12-20T11:35:52.234Z,22.53
2022-12-20T11:38:41.546Z,21.87
2022-12-20T11:41:31.846Z,21.40
2022-12-20T11:44:26.132Z,21.67
2022-12-20T11:47:20.124Z,22.60
2022-12-20T11:50:14.639Z,21.43
2022-12-20T11:52:52.026Z,21.10
2022-12-20T11:55:29.797Z,21.10
2022-12-20T11:58:21.582Z,21.83
2022-12-20T12:00:57.159Z,21.77
2022-12-20T12:03:33.881Z,21.00
2022-12-20T12:06:10.526Z,21.67
2022-12-20T12:08:48.211Z,20.77
2022-12-20T12:12:04.618Z,21.43
2022-12-20T12:14:36.469Z,22.60
2022-12-20T12:17:13.396Z,21.17
2022-12-20T12:19:49.559Z,22.03
2022-12-20T12:22:28.195Z,21.30
2022-12-20T12:25:04.421Z,22.33
2022-12-20T12:27:35.243Z,22.30
2022-12-20T12:30:03.619Z,22.30
2022-12-20T12:32:43.999Z,23.47
2022-12-20T12:35:42.567Z,23.33
2022-12-20T12:38:34.876Z,22.43
2022-12-20T12:41:35.614Z,22.23
2022-12-20T12:44:40.786Z,22.93
2022-12-20T12:47:20.845Z,22.37
2022-12-20T12:49:53.995Z,21.73
2022-12-20T12:52:43.948Z,22.47
2022-12-20T12:55:43.741Z,22.63
2022-12-20T12:58:32.253Z,22.47
2022-12-20T13:01:05.444Z,21.83
2022-12-20T13:03:41.240Z,21.90
2022-12-20T13:07:21.952Z,21.50
2022-12-20T13:09:50.567Z,21.40
2022-12-20T13:12:59.158Z,21.67
2022-12-20T13:15:50.336Z,22.27
2022-12-20T13:18:29.310Z,21.10
2022-12-20T13:21:31.979Z,22.13
2022-12-20T13:24:42.685Z,22.83
2022-12-20T13:27:32.554Z,22.60
2022-12-20T13:30:27.254Z,23.67
2022-12-20T13:33:16.808Z,23.43
2022-12-20T13:36:37.851Z,23.33
2022-12-20T13:39:37.081Z,23.13
2022-12-20T13:42:23.771Z,23.17
2022-12-20T13:44:57.097Z,23.27
2022-12-20T13:47:47.039Z,22.23
2022-12-20T13:50:35.593Z,22.67
2022-12-20T13:53:08.237Z,22.73
2022-12-20T13:55:39.868Z,23.03
2022-12-20T13:58:15.434Z,23.20
2022-12-20T14:00:45.068Z,23.37
2022-12-20T14:03:24.230Z,23.20
2022-12-20T14:05:59.649Z,23.67
2022-12-20T14:08:34.797Z,22.93
2022-12-20T14:11:12.606Z,23.43
2022-12-20T14:13:41.439Z,23.63
2022-12-20T14:16:15.987Z,24.17
2022-12-20T14:18:50.150Z,23.27
2022-12-20T14:21:20.523Z,22.77
2022-12-20T14:23:55.165Z,23.50
2022-12-20T14:26:28.211Z,22.73
2022-12-20T14:29:02.061Z,23.27
2022-12-20T14:31:42.264Z,22.30
2022-12-20T14:34:19.789Z,22.80
2022-12-20T14:36:50.954Z,24.00
2022-12-20T14:39:31.087Z,24.23
2022-12-20T14:42:02.344Z,22.87
2022-12-20T14:44:33.150Z,23.23
2022-12-20T14:47:06.659Z,24.13
2022-12-20T14:49:39.978Z,23.80
2022-12-20T14:52:16.052Z,23.60
2022-12-20T14:55:10.016Z,24.33
2022-12-20T14:57:48.743Z,23.93
2022-12-20T15:00:25.542Z,23.67
2022-12-20T15:03:04.994Z,23.97
2022-12-20T15:05:52.574Z,24.57
2022-12-20T15:08:27.643Z,22.67
2022-12-20T15:11:03.579Z,24.33
2022-12-20T15:13:36.434Z,23.80
2022-12-20T15:16:14.765Z,24.53
2022-12-20T15:18:43.504Z,25.07
2022-12-20T15:21:17.127Z,25.43
2022-12-20T15:23:51.690Z,25.97
2022-12-20T15:26:27.109Z,24.20
2022-12-20T15:28:56.409Z,25.47
2022-12-20T15:31:33.320Z,25.10
2022-12-20T15:34:05.418Z,26.03
2022-12-20T15:36:34.988Z,25.07
2022-12-20T15:39:13.269Z,26.30
2022-12-20T15:41:49.851Z,26.00
2022-12-20T15:44:22.237Z,24.57
2022-12-20T15:46:51.475Z,24.60
2022-12-20T15:49:23.404Z,25.47
2022-12-20T15:51:55.095Z,25.40
2022-12-20T15:54:28.284Z,26.17
2022-12-20T15:56:59.724Z,25.40
2022-12-20T16:02:25.382Z,25.60
2022-12-20T16:04:56.393Z,26.20
2022-12-20T16:07:25.432Z,24.63
2022-12-20T16:09:54.496Z,26.00
2022-12-20T16:12:28.116Z,26.33
2022-12-20T16:14:56.967Z,25.47
2022-12-20T16:17:25.400Z,25.43
2022-12-20T16:19:53.808Z,25.10
2022-12-20T16:22:26.140Z,25.70
2022-12-20T16:24:54.899Z,26.23
2022-12-20T16:27:24.495Z,25.40
2022-12-20T16:29:53.108Z,24.20
2022-12-20T16:32:23.060Z,25.27
2022-12-20T16:34:52.695Z,25.87
2022-12-20T16:37:21.587Z,25.43
2022-12-20T16:39:49.897Z,26.10
2022-12-20T16:42:22.413Z,26.23
2022-12-20T16:44:55.072Z,25.57
2022-12-20T16:47:23.459Z,26.23
2022-12-20T16:49:53.772Z,25.80
2022-12-20T16:52:23.573Z,26.33
2022-12-20T16:54:52.493Z,27.53
2022-12-20T16:57:21.553Z,26.80
2022-12-20T16:59:50.311Z,27.67
2022-12-20T17:02:28.636Z,27.77
2022-12-20T17:04:57.743Z,27.60
2022-12-20T17:07:26.939Z,27.73
2022-12-20T17:10:11.083Z,27.07
2022-12-20T17:12:39.584Z,27.23
2022-12-20T17:15:17.249Z,27.17
2022-12-20T17:17:47.545Z,27.53
2022-12-20T17:20:17.450Z,27.93
2022-12-20T17:25:37.247Z,28.37
2022-12-20T17:28:06.956Z,27.40
2022-12-20T17:30:35.937Z,27.00
2022-12-20T17:33:05.610Z,28.03
2022-12-20T17:35:34.831Z,26.53
2022-12-20T17:38:03.129Z,26.20
2022-12-20T17:40:31.367Z,25.47
2022-12-20T17:42:59.700Z,26.40
2022-12-20T17:45:32.957Z,25.33
2022-12-20T17:48:01.323Z,25.10
2022-12-20T17:50:30.991Z,25.23
2022-12-20T17:52:59.559Z,26.80
2022-12-20T17:55:29.799Z,26.43
2022-12-20T17:57:58.064Z,25.87
2022-12-20T18:00:38.053Z,25.60
2022-12-20T18:03:07.909Z,27.40
2022-12-20T18:05:41.642Z,26.80
2022-12-20T18:08:10.198Z,28.43
2022-12-20T18:10:38.719Z,28.80
2022-12-20T18:13:06.938Z,28.87
2022-12-20T18:15:35.220Z,28.23
2022-12-20T18:18:03.454Z,28.13
2022-12-20T18:20:32.268Z,28.60
2022-12-20T18:23:01.932Z,27.97
2022-12-20T18:25:30.400Z,27.73
2022-12-20T18:27:58.670Z,27.53
2022-12-20T18:30:27.046Z,28.20
2022-12-20T18:32:55.315Z,28.00
2022-12-20T18:35:23.699Z,27.67
2022-12-20T18:37:52.615Z,27.63
2022-12-20T18:40:22.344Z,27.53
2022-12-20T18:42:54.887Z,25.53
2022-12-20T18:45:23.134Z,26.77
2022-12-20T18:47:51.373Z,27.17
2022-12-20T18:50:19.570Z,27.13
2022-12-20T18:52:47.807Z,27.30
2022-12-20T18:55:16.161Z,27.17
2022-12-20T18:57:45.727Z,26.77
2022-12-20T19:00:15.971Z,27.47
2022-12-20T19:02:44.380Z,26.73
2022-12-20T19:05:13.027Z,26.63
2022-12-20T19:07:41.270Z,27.97
2022-12-20T19:10:10.756Z,25.80
2022-12-20T19:12:38.995Z,27.70
2022-12-20T19:15:09.729Z,27.10
2022-12-20T19:17:38.089Z,27.17
2022-12-20T19:20:08.169Z,25.90
2022-12-20T19:22:36.911Z,26.37
2022-12-20T19:25:06.022Z,26.30
2022-12-20T19:27:34.328Z,27.17
2022-12-20T19:30:03.837Z,26.47
2022-12-20T19:32:33.517Z,26.23
2022-12-20T19:35:23.357Z,27.33
2022-12-20T19:37:50.511Z,26.73
2022-12-20T19:40:19.010Z,25.67
2022-12-20T19:42:47.642Z,26.70
2022-12-20T19:45:16.781Z,26.53
2022-12-20T19:47:53.819Z,27.67
2022-12-20T19:50:22.476Z,28.40
2022-12-20T19:52:53.387Z,27.43
2022-12-20T19:55:23.904Z,27.03
2022-12-20T19:57:52.485Z,27.07
2022-12-20T20:00:22.184Z,26.67
2022-12-20T20:02:51.951Z,26.63
2022-12-20T20:05:21.051Z,26.57
2022-12-20T20:07:50.872Z,27.23
2022-12-20T20:10:20.033Z,28.10
2022-12-20T20:12:49.013Z,26.13
2022-12-20T20:15:18.252Z,27.13
2022-12-20T20:17:47.112Z,26.27
2022-12-20T20:20:17.876Z,26.80
2022-12-20T20:22:46.477Z,27.00
2022-12-20T20:25:15.484Z,25.03
2022-12-20T20:27:44.325Z,26.80
2022-12-20T20:30:15.363Z,26.93
2022-12-20T20:32:44.321Z,27.10
2022-12-20T20:35:13.256Z,26.30
2022-12-20T20:37:47.430Z,27.40
2022-12-20T20:40:16.526Z,27.13
2022-12-20T20:42:45.197Z,27.20
2022-12-20T20:45:14.502Z,27.73
2022-12-20T20:47:44.788Z,26.13
2022-12-20T20:50:13.955Z,28.30
2022-12-20T20:52:44.333Z,27.50
2022-12-20T20:55:13.622Z,27.30
2022-12-20T20:57:42.237Z,26.43
2022-12-20T21:00:12.836Z,27.70
2022-12-20T21:02:42.476Z,26.47
2022-12-20T21:08:02.241Z,27.23
2022-12-20T21:10:30.983Z,27.37
2022-12-20T21:13:02.441Z,26.77
2022-12-20T21:15:31.198Z,28.07
2022-12-20T21:18:00.141Z,27.17
2022-12-20T21:20:28.985Z,25.87
2022-12-20T21:22:58.296Z,25.47
2022-12-20T21:25:28.023Z,26.10
2022-12-20T21:27:57.674Z,25.70
2022-12-20T21:30:26.403Z,26.30
2022-12-20T21:32:54.983Z,25.47
2022-12-20T21:35:23.597Z,27.33
2022-12-20T21:37:53.453Z,26.23
2022-12-20T21:40:22.406Z,25.30
2022-12-20T21:42:52.718Z,25.23
2022-12-20T21:45:21.735Z,25.87
2022-12-20T21:47:50.719Z,25.43
2022-12-20T21:50:19.930Z,26.37
2022-12-20T21:52:48.304Z,25.57
2022-12-20T21:55:17.014Z,25.60
2022-12-20T21:57:48.542Z,25.00
2022-12-20T22:00:20.034Z,25.83
2022-12-20T22:02:48.964Z,23.93
2022-12-20T22:05:17.666Z,24.83
2022-12-20T22:07:47.363Z,25.10
2022-12-20T22:10:16.069Z,25.60
2022-12-20T22:12:44.767Z,25.87
2022-12-20T22:15:13.690Z,27.07
2022-12-20T22:17:43.696Z,24.30
2022-12-20T22:20:13.044Z,23.70
2022-12-20T22:22:42.296Z,24.20
2022-12-20T22:25:11.641Z,25.87
2022-12-20T22:27:40.376Z,27.27
2022-12-20T22:30:11.299Z,25.17
2022-12-20T22:32:40.252Z,26.80
2022-12-20T22:35:10.579Z,25.33
2022-12-20T22:37:39.228Z,25.00
2022-12-20T22:40:09.701Z,25.43
2022-12-20T22:42:41.475Z,25.60
2022-12-20T22:45:11.523Z,25.53
2022-12-20T22:47:42.920Z,25.37
2022-12-20T22:50:13.912Z,25.13
2022-12-20T22:52:42.678Z,24.87
2022-12-20T22:55:11.741Z,22.93
2022-12-20T22:57:40.584Z,24.00
2022-12-20T23:00:13.337Z,24.30
2022-12-20T23:02:42.591Z,25.03
2022-12-20T23:05:12.756Z,25.30
2022-12-20T23:07:41.432Z,25.60
2022-12-20T23:10:31.483Z,23.77
2022-12-20T23:13:17.613Z,25.83
2022-12-20T23:15:49.513Z,26.10
2022-12-20T23:18:18.651Z,26.57
2022-12-20T23:21:09.485Z,26.57
2022-12-20T23:23:37.689Z,26.33
2022-12-20T23:26:13.581Z,25.10
2022-12-20T23:28:42.783Z,23.30
2022-12-20T23:31:12.364Z,25.97
2022-12-20T23:33:42.236Z,23.80
2022-12-20T23:36:13.215Z,24.17
2022-12-20T23:38:42.485Z,25.20
2022-12-20T23:41:13.751Z,26.13
2022-12-20T23:43:43.000Z,25.67
2022-12-20T23:46:14.187Z,26.67
2022-12-20T23:48:43.461Z,25.97
2022-12-20T23:51:13.701Z,27.00
2022-12-20T23:53:42.323Z,24.97
2022-12-20T23:56:14.908Z,25.97
2022-12-20T23:58:44.656Z,25.30
